sensor_id;sensor_type;location;lat;lon;timestamp;temperature;humidity
37806;DHT22;25082;50.870;0.022;2023-03-04T00:01:38;17.80;56.60
37806;DHT22;25082;50.870;0.022;2023-03-04T00:04:04;17.80;56.50
37806;DHT22;25082;50.870;0.022;2023-03-04T00:06:30;17.80;56.50
37806;DHT22;25082;50.870;0.022;2023-03-04T00:08:55;17.70;56.50
37806;DHT22;25082;50.870;0.022;2023-03-04T00:11:21;17.70;56.50
37806;DHT22;25082;50.870;0.022;2023-03-04T00:13:47;17.70;56.50
37806;DHT22;25082;50.870;0.022;2023-03-04T00:16:12;17.70;56.30
37806;DHT22;25082;50.870;0.022;2023-03-04T00:18:38;17.70;56.30
37806;DHT22;25082;50.870;0.022;2023-03-04T00:21:04;17.70;56.30
37806;DHT22;25082;50.870;0.022;2023-03-04T00:23:30;17.70;56.30
37806;DHT22;25082;50.870;0.022;2023-03-04T00:25:55;17.70;56.30
37806;DHT22;25082;50.870;0.022;2023-03-04T00:28:21;17.70;56.20
37806;DHT22;25082;50.870;0.022;2023-03-04T00:30:47;17.60;56.20
37806;DHT22;25082;50.870;0.022;2023-03-04T00:33:13;17.60;56.20
37806;DHT22;25082;50.870;0.022;2023-03-04T00:35:39;17.60;56.30
37806;DHT22;25082;50.870;0.022;2023-03-04T00:38:04;17.60;56.30
37806;DHT22;25082;50.870;0.022;2023-03-04T00:40:30;17.60;56.20
37806;DHT22;25082;50.870;0.022;2023-03-04T00:42:56;17.60;56.20
37806;DHT22;25082;50.870;0.022;2023-03-04T00:45:22;17.60;56.20
37806;DHT22;25082;50.870;0.022;2023-03-04T00:47:47;17.60;56.20
37806;DHT22;25082;50.870;0.022;2023-03-04T00:50:13;17.60;56.10
37806;DHT22;25082;50.870;0.022;2023-03-04T00:52:39;17.50;56.20
37806;DHT22;25082;50.870;0.022;2023-03-04T00:57:40;17.50;56.10
37806;DHT22;25082;50.870;0.022;2023-03-04T01:00:06;17.50;56.10
37806;DHT22;25082;50.870;0.022;2023-03-04T01:02:32;17.50;56.10
37806;DHT22;25082;50.870;0.022;2023-03-04T01:04:58;17.50;56.10
37806;DHT22;25082;50.870;0.022;2023-03-04T01:07:23;17.50;56.10
37806;DHT22;25082;50.870;0.022;2023-03-04T01:09:49;17.50;56.10
37806;DHT22;25082;50.870;0.022;2023-03-04T01:12:15;17.50;56.10
37806;DHT22;25082;50.870;0.022;2023-03-04T01:14:40;17.50;56.30
37806;DHT22;25082;50.870;0.022;2023-03-04T01:17:06;17.50;56.20
37806;DHT22;25082;50.870;0.022;2023-03-04T01:19:32;17.40;56.10
37806;DHT22;25082;50.870;0.022;2023-03-04T01:21:57;17.40;56.10
37806;DHT22;25082;50.870;0.022;2023-03-04T01:24:23;17.40;56.20
37806;DHT22;25082;50.870;0.022;2023-03-04T01:26:49;17.40;56.20
37806;DHT22;25082;50.870;0.022;2023-03-04T01:29:14;17.30;56.10
37806;DHT22;25082;50.870;0.022;2023-03-04T01:31:40;17.40;56.20
37806;DHT22;25082;50.870;0.022;2023-03-04T01:34:06;17.40;56.10
37806;DHT22;25082;50.870;0.022;2023-03-04T01:36:34;17.40;56.10
37806;DHT22;25082;50.870;0.022;2023-03-04T01:39:00;17.40;56.20
37806;DHT22;25082;50.870;0.022;2023-03-04T01:41:26;17.40;56.10
37806;DHT22;25082;50.870;0.022;2023-03-04T01:43:55;17.30;56.10
37806;DHT22;25082;50.870;0.022;2023-03-04T01:46:21;17.30;56.10
37806;DHT22;25082;50.870;0.022;2023-03-04T01:48:48;17.30;56.10
37806;DHT22;25082;50.870;0.022;2023-03-04T01:51:16;17.30;56.10
37806;DHT22;25082;50.870;0.022;2023-03-04T01:53:43;17.30;56.10
37806;DHT22;25082;50.870;0.022;2023-03-04T01:56:19;17.30;56.10
37806;DHT22;25082;50.870;0.022;2023-03-04T01:59:13;17.30;56.10
37806;DHT22;25082;50.870;0.022;2023-03-04T02:01:43;17.30;56.10
37806;DHT22;25082;50.870;0.022;2023-03-04T02:04:09;17.20;56.10
37806;DHT22;25082;50.870;0.022;2023-03-04T02:06:37;17.20;56.20
37806;DHT22;25082;50.870;0.022;2023-03-04T02:09:05;17.20;56.10
37806;DHT22;25082;50.870;0.022;2023-03-04T02:11:31;17.20;56.10
37806;DHT22;25082;50.870;0.022;2023-03-04T02:13:58;17.20;56.10
37806;DHT22;25082;50.870;0.022;2023-03-04T02:16:24;17.20;56.10
37806;DHT22;25082;50.870;0.022;2023-03-04T02:18:51;17.20;56.20
37806;DHT22;25082;50.870;0.022;2023-03-04T02:24:14;17.20;56.10
37806;DHT22;25082;50.870;0.022;2023-03-04T02:26:42;17.20;56.20
37806;DHT22;25082;50.870;0.022;2023-03-04T02:29:13;17.20;56.30
37806;DHT22;25082;50.870;0.022;2023-03-04T02:31:49;17.10;56.10
37806;DHT22;25082;50.870;0.022;2023-03-04T02:34:30;17.10;56.10
37806;DHT22;25082;50.870;0.022;2023-03-04T02:36:57;17.10;56.10
37806;DHT22;25082;50.870;0.022;2023-03-04T02:39:39;17.10;56.10
37806;DHT22;25082;50.870;0.022;2023-03-04T02:42:06;17.10;56.20
37806;DHT22;25082;50.870;0.022;2023-03-04T02:44:40;17.10;56.10
37806;DHT22;25082;50.870;0.022;2023-03-04T02:47:09;17.10;56.20
37806;DHT22;25082;50.870;0.022;2023-03-04T02:49:37;17.10;56.20
37806;DHT22;25082;50.870;0.022;2023-03-04T02:52:10;17.10;56.10
37806;DHT22;25082;50.870;0.022;2023-03-04T02:54:38;17.10;56.20
37806;DHT22;25082;50.870;0.022;2023-03-04T02:57:06;17.00;56.10
37806;DHT22;25082;50.870;0.022;2023-03-04T02:59:32;17.00;56.10
37806;DHT22;25082;50.870;0.022;2023-03-04T03:01:59;17.00;56.10
37806;DHT22;25082;50.870;0.022;2023-03-04T03:04:25;17.00;56.10
37806;DHT22;25082;50.870;0.022;2023-03-04T03:06:51;17.00;56.10
37806;DHT22;25082;50.870;0.022;2023-03-04T03:09:19;17.00;56.10
37806;DHT22;25082;50.870;0.022;2023-03-04T03:11:45;17.00;56.10
37806;DHT22;25082;50.870;0.022;2023-03-04T03:14:10;17.00;56.10
37806;DHT22;25082;50.870;0.022;2023-03-04T03:16:36;17.00;56.20
37806;DHT22;25082;50.870;0.022;2023-03-04T03:19:02;17.00;56.10
37806;DHT22;25082;50.870;0.022;2023-03-04T03:21:28;17.00;56.10
37806;DHT22;25082;50.870;0.022;2023-03-04T03:23:53;17.00;56.10
37806;DHT22;25082;50.870;0.022;2023-03-04T03:26:19;16.90;56.10
37806;DHT22;25082;50.870;0.022;2023-03-04T03:28:45;16.90;56.10
37806;DHT22;25082;50.870;0.022;2023-03-04T03:31:11;16.90;56.00
37806;DHT22;25082;50.870;0.022;2023-03-04T03:33:37;16.90;56.00
37806;DHT22;25082;50.870;0.022;2023-03-04T03:36:03;16.90;56.00
37806;DHT22;25082;50.870;0.022;2023-03-04T03:38:29;16.90;56.10
37806;DHT22;25082;50.870;0.022;2023-03-04T03:40:55;16.90;56.10
37806;DHT22;25082;50.870;0.022;2023-03-04T03:43:20;16.90;56.10
37806;DHT22;25082;50.870;0.022;2023-03-04T03:45:46;16.90;56.10
37806;DHT22;25082;50.870;0.022;2023-03-04T03:48:12;16.90;56.10
37806;DHT22;25082;50.870;0.022;2023-03-04T03:50:37;16.90;56.10
37806;DHT22;25082;50.870;0.022;2023-03-04T03:53:03;16.90;56.10
37806;DHT22;25082;50.870;0.022;2023-03-04T03:55:29;16.90;56.10
37806;DHT22;25082;50.870;0.022;2023-03-04T03:57:55;16.80;56.00
37806;DHT22;25082;50.870;0.022;2023-03-04T04:00:20;16.80;56.10
37806;DHT22;25082;50.870;0.022;2023-03-04T04:02:46;16.80;56.10
37806;DHT22;25082;50.870;0.022;2023-03-04T04:05:12;16.80;56.00
37806;DHT22;25082;50.870;0.022;2023-03-04T04:07:38;16.80;56.10
37806;DHT22;25082;50.870;0.022;2023-03-04T04:10:04;16.80;56.10
37806;DHT22;25082;50.870;0.022;2023-03-04T04:12:30;16.80;56.10
37806;DHT22;25082;50.870;0.022;2023-03-04T04:14:56;16.80;56.10
37806;DHT22;25082;50.870;0.022;2023-03-04T04:17:22;16.80;56.10
37806;DHT22;25082;50.870;0.022;2023-03-04T04:19:47;16.70;56.10
37806;DHT22;25082;50.870;0.022;2023-03-04T04:22:15;16.80;56.10
37806;DHT22;25082;50.870;0.022;2023-03-04T04:24:41;16.80;56.10
37806;DHT22;25082;50.870;0.022;2023-03-04T04:27:07;16.70;56.10
37806;DHT22;25082;50.870;0.022;2023-03-04T04:29:33;16.80;56.20
37806;DHT22;25082;50.870;0.022;2023-03-04T04:31:59;16.80;56.20
37806;DHT22;25082;50.870;0.022;2023-03-04T04:34:25;16.70;56.20
37806;DHT22;25082;50.870;0.022;2023-03-04T04:36:51;16.70;56.10
37806;DHT22;25082;50.870;0.022;2023-03-04T04:39:17;16.70;56.10
37806;DHT22;25082;50.870;0.022;2023-03-04T04:41:44;16.70;56.10
37806;DHT22;25082;50.870;0.022;2023-03-04T04:44:11;16.70;56.20
37806;DHT22;25082;50.870;0.022;2023-03-04T04:46:37;16.70;56.20
37806;DHT22;25082;50.870;0.022;2023-03-04T04:49:04;16.70;56.20
37806;DHT22;25082;50.870;0.022;2023-03-04T04:51:30;16.70;56.20
37806;DHT22;25082;50.870;0.022;2023-03-04T04:53:58;16.60;56.10
37806;DHT22;25082;50.870;0.022;2023-03-04T04:56:24;16.70;56.20
37806;DHT22;25082;50.870;0.022;2023-03-04T04:58:52;16.70;56.20
37806;DHT22;25082;50.870;0.022;2023-03-04T05:01:18;16.60;56.10
37806;DHT22;25082;50.870;0.022;2023-03-04T05:03:44;16.60;56.10
37806;DHT22;25082;50.870;0.022;2023-03-04T05:06:11;16.60;56.10
37806;DHT22;25082;50.870;0.022;2023-03-04T05:08:37;16.60;56.10
37806;DHT22;25082;50.870;0.022;2023-03-04T05:11:06;16.60;56.10
37806;DHT22;25082;50.870;0.022;2023-03-04T05:13:32;16.60;56.10
37806;DHT22;25082;50.870;0.022;2023-03-04T05:15:58;16.60;56.10
37806;DHT22;25082;50.870;0.022;2023-03-04T05:18:24;16.60;56.10
37806;DHT22;25082;50.870;0.022;2023-03-04T05:20:52;16.60;56.10
37806;DHT22;25082;50.870;0.022;2023-03-04T05:23:18;16.60;56.10
37806;DHT22;25082;50.870;0.022;2023-03-04T05:25:44;16.60;56.10
37806;DHT22;25082;50.870;0.022;2023-03-04T05:28:10;16.60;56.10
37806;DHT22;25082;50.870;0.022;2023-03-04T05:30:41;16.50;56.10
37806;DHT22;25082;50.870;0.022;2023-03-04T05:33:07;16.50;56.00
37806;DHT22;25082;50.870;0.022;2023-03-04T05:35:35;16.60;56.10
37806;DHT22;25082;50.870;0.022;2023-03-04T05:38:02;16.50;56.10
37806;DHT22;25082;50.870;0.022;2023-03-04T05:40:28;16.50;56.10
37806;DHT22;25082;50.870;0.022;2023-03-04T05:42:54;16.50;56.00
37806;DHT22;25082;50.870;0.022;2023-03-04T05:45:19;16.50;56.10
37806;DHT22;25082;50.870;0.022;2023-03-04T05:47:45;16.50;56.10
37806;DHT22;25082;50.870;0.022;2023-03-04T05:50:11;16.50;56.10
37806;DHT22;25082;50.870;0.022;2023-03-04T05:52:37;16.50;56.10
37806;DHT22;25082;50.870;0.022;2023-03-04T05:55:02;16.50;56.10
37806;DHT22;25082;50.870;0.022;2023-03-04T05:57:28;16.50;56.10
37806;DHT22;25082;50.870;0.022;2023-03-04T05:59:54;16.50;56.10
37806;DHT22;25082;50.870;0.022;2023-03-04T06:02:20;16.50;56.10
37806;DHT22;25082;50.870;0.022;2023-03-04T06:04:45;16.50;56.10
37806;DHT22;25082;50.870;0.022;2023-03-04T06:07:11;16.50;56.10
37806;DHT22;25082;50.870;0.022;2023-03-04T06:09:37;16.50;56.10
37806;DHT22;25082;50.870;0.022;2023-03-04T06:12:02;16.40;56.10
37806;DHT22;25082;50.870;0.022;2023-03-04T06:14:28;16.40;56.10
37806;DHT22;25082;50.870;0.022;2023-03-04T06:16:54;16.40;56.10
37806;DHT22;25082;50.870;0.022;2023-03-04T06:19:20;16.40;56.20
37806;DHT22;25082;50.870;0.022;2023-03-04T06:21:46;16.40;56.20
37806;DHT22;25082;50.870;0.022;2023-03-04T06:24:12;16.40;56.20
37806;DHT22;25082;50.870;0.022;2023-03-04T06:26:37;16.40;56.20
37806;DHT22;25082;50.870;0.022;2023-03-04T06:29:04;16.40;56.20
37806;DHT22;25082;50.870;0.022;2023-03-04T06:31:30;16.40;56.20
37806;DHT22;25082;50.870;0.022;2023-03-04T06:33:56;16.40;56.20
37806;DHT22;25082;50.870;0.022;2023-03-04T06:36:21;16.40;56.20
37806;DHT22;25082;50.870;0.022;2023-03-04T06:38:47;16.40;56.20
37806;DHT22;25082;50.870;0.022;2023-03-04T06:41:13;16.40;56.20
37806;DHT22;25082;50.870;0.022;2023-03-04T06:43:39;16.40;56.20
37806;DHT22;25082;50.870;0.022;2023-03-04T06:46:06;16.30;56.20
37806;DHT22;25082;50.870;0.022;2023-03-04T06:48:33;16.40;56.20
37806;DHT22;25082;50.870;0.022;2023-03-04T06:51:07;16.30;56.20
37806;DHT22;25082;50.870;0.022;2023-03-04T06:53:33;16.30;56.20
37806;DHT22;25082;50.870;0.022;2023-03-04T06:55:59;16.30;56.20
37806;DHT22;25082;50.870;0.022;2023-03-04T06:58:25;16.30;56.20
37806;DHT22;25082;50.870;0.022;2023-03-04T07:00:50;16.30;56.20
37806;DHT22;25082;50.870;0.022;2023-03-04T07:03:16;16.30;56.20
37806;DHT22;25082;50.870;0.022;2023-03-04T07:05:42;16.30;56.20
37806;DHT22;25082;50.870;0.022;2023-03-04T07:08:08;16.30;56.30
37806;DHT22;25082;50.870;0.022;2023-03-04T07:10:34;16.30;56.30
37806;DHT22;25082;50.870;0.022;2023-03-04T07:13:00;16.30;56.50
37806;DHT22;25082;50.870;0.022;2023-03-04T07:15:26;16.30;56.40
37806;DHT22;25082;50.870;0.022;2023-03-04T07:17:51;16.30;56.20
37806;DHT22;25082;50.870;0.022;2023-03-04T07:20:18;16.30;56.00
37806;DHT22;25082;50.870;0.022;2023-03-04T07:22:44;16.40;56.00
37806;DHT22;25082;50.870;0.022;2023-03-04T07:25:10;16.40;55.80
37806;DHT22;25082;50.870;0.022;2023-03-04T07:27:36;16.40;55.70
37806;DHT22;25082;50.870;0.022;2023-03-04T07:30:04;16.40;55.60
37806;DHT22;25082;50.870;0.022;2023-03-04T07:32:30;16.50;55.60
37806;DHT22;25082;50.870;0.022;2023-03-04T07:34:58;16.50;55.60
37806;DHT22;25082;50.870;0.022;2023-03-04T07:37:24;16.50;55.60
37806;DHT22;25082;50.870;0.022;2023-03-04T07:39:50;16.50;55.60
37806;DHT22;25082;50.870;0.022;2023-03-04T07:42:16;16.50;55.60
37806;DHT22;25082;50.870;0.022;2023-03-04T07:44:41;16.50;55.60
37806;DHT22;25082;50.870;0.022;2023-03-04T07:47:07;16.60;55.70
37806;DHT22;25082;50.870;0.022;2023-03-04T07:49:33;16.60;55.80
37806;DHT22;25082;50.870;0.022;2023-03-04T07:52:03;16.60;55.80
37806;DHT22;25082;50.870;0.022;2023-03-04T07:54:28;16.60;55.80
37806;DHT22;25082;50.870;0.022;2023-03-04T07:56:55;16.60;55.90
37806;DHT22;25082;50.870;0.022;2023-03-04T07:59:21;16.70;56.00
37806;DHT22;25082;50.870;0.022;2023-03-04T08:01:47;16.70;56.00
37806;DHT22;25082;50.870;0.022;2023-03-04T08:04:12;16.70;56.10
37806;DHT22;25082;50.870;0.022;2023-03-04T08:06:40;16.70;56.10
37806;DHT22;25082;50.870;0.022;2023-03-04T08:09:07;16.70;56.10
37806;DHT22;25082;50.870;0.022;2023-03-04T08:11:35;16.80;56.20
37806;DHT22;25082;50.870;0.022;2023-03-04T08:14:01;16.80;56.30
37806;DHT22;25082;50.870;0.022;2023-03-04T08:16:28;16.80;56.30
37806;DHT22;25082;50.870;0.022;2023-03-04T08:18:56;16.80;56.40
37806;DHT22;25082;50.870;0.022;2023-03-04T08:21:23;16.80;56.40
37806;DHT22;25082;50.870;0.022;2023-03-04T08:23:50;16.90;56.50
37806;DHT22;25082;50.870;0.022;2023-03-04T08:26:20;16.90;56.50
37806;DHT22;25082;50.870;0.022;2023-03-04T08:28:46;16.90;56.50
37806;DHT22;25082;50.870;0.022;2023-03-04T08:31:13;16.90;56.50
37806;DHT22;25082;50.870;0.022;2023-03-04T08:33:39;16.90;56.50
37806;DHT22;25082;50.870;0.022;2023-03-04T08:36:05;16.90;56.60
37806;DHT22;25082;50.870;0.022;2023-03-04T08:38:31;17.00;56.70
37806;DHT22;25082;50.870;0.022;2023-03-04T08:40:57;17.00;56.60
37806;DHT22;25082;50.870;0.022;2023-03-04T08:43:24;17.00;56.60
37806;DHT22;25082;50.870;0.022;2023-03-04T08:45:52;17.00;56.70
37806;DHT22;25082;50.870;0.022;2023-03-04T08:48:18;17.00;56.70
37806;DHT22;25082;50.870;0.022;2023-03-04T08:50:45;17.00;56.70
37806;DHT22;25082;50.870;0.022;2023-03-04T08:53:12;17.10;56.80
37806;DHT22;25082;50.870;0.022;2023-03-04T08:55:38;17.10;56.80
37806;DHT22;25082;50.870;0.022;2023-03-04T08:58:05;17.10;56.80
37806;DHT22;25082;50.870;0.022;2023-03-04T09:00:32;17.10;56.80
37806;DHT22;25082;50.870;0.022;2023-03-04T09:02:58;17.10;56.80
37806;DHT22;25082;50.870;0.022;2023-03-04T09:05:23;17.10;56.80
37806;DHT22;25082;50.870;0.022;2023-03-04T09:07:49;17.20;56.90
37806;DHT22;25082;50.870;0.022;2023-03-04T09:10:15;17.20;56.90
37806;DHT22;25082;50.870;0.022;2023-03-04T09:12:40;17.20;56.90
37806;DHT22;25082;50.870;0.022;2023-03-04T09:15:07;17.20;56.90
37806;DHT22;25082;50.870;0.022;2023-03-04T09:17:33;17.20;56.90
37806;DHT22;25082;50.870;0.022;2023-03-04T09:19:59;17.20;56.90
37806;DHT22;25082;50.870;0.022;2023-03-04T09:22:24;17.30;56.90
37806;DHT22;25082;50.870;0.022;2023-03-04T09:24:50;17.20;57.00
37806;DHT22;25082;50.870;0.022;2023-03-04T09:27:16;17.20;56.80
37806;DHT22;25082;50.870;0.022;2023-03-04T09:29:42;17.30;56.90
37806;DHT22;25082;50.870;0.022;2023-03-04T09:32:08;17.30;56.90
37806;DHT22;25082;50.870;0.022;2023-03-04T09:34:34;17.30;56.90
37806;DHT22;25082;50.870;0.022;2023-03-04T09:37:00;17.30;56.90
37806;DHT22;25082;50.870;0.022;2023-03-04T09:39:26;17.30;56.90
37806;DHT22;25082;50.870;0.022;2023-03-04T09:41:54;17.30;56.90
37806;DHT22;25082;50.870;0.022;2023-03-04T09:44:33;17.40;56.90
37806;DHT22;25082;50.870;0.022;2023-03-04T09:47:13;17.40;56.90
37806;DHT22;25082;50.870;0.022;2023-03-04T09:49:43;17.40;57.00
37806;DHT22;25082;50.870;0.022;2023-03-04T09:55:22;17.40;56.90
37806;DHT22;25082;50.870;0.022;2023-03-04T10:00:46;17.40;57.00
37806;DHT22;25082;50.870;0.022;2023-03-04T10:05:55;17.50;57.00
37806;DHT22;25082;50.870;0.022;2023-03-04T10:11:12;17.50;57.00
37806;DHT22;25082;50.870;0.022;2023-03-04T10:17:02;17.50;57.00
37806;DHT22;25082;50.870;0.022;2023-03-04T10:22:50;17.50;57.00
37806;DHT22;25082;50.870;0.022;2023-03-04T10:33:44;17.60;57.00
37806;DHT22;25082;50.870;0.022;2023-03-04T10:38:58;17.60;57.00
37806;DHT22;25082;50.870;0.022;2023-03-04T10:41:27;17.60;57.00
37806;DHT22;25082;50.870;0.022;2023-03-04T10:44:14;17.60;57.00
37806;DHT22;25082;50.870;0.022;2023-03-04T10:46:43;17.60;56.90
37806;DHT22;25082;50.870;0.022;2023-03-04T10:49:09;17.70;57.50
37806;DHT22;25082;50.870;0.022;2023-03-04T10:54:51;17.70;56.90
37806;DHT22;25082;50.870;0.022;2023-03-04T10:57:27;17.70;56.90
37806;DHT22;25082;50.870;0.022;2023-03-04T11:00:07;17.70;56.90
37806;DHT22;25082;50.870;0.022;2023-03-04T11:02:46;17.70;56.90
37806;DHT22;25082;50.870;0.022;2023-03-04T11:05:19;17.70;56.90
37806;DHT22;25082;50.870;0.022;2023-03-04T11:07:54;17.70;56.90
37806;DHT22;25082;50.870;0.022;2023-03-04T11:10:22;17.70;56.90
37806;DHT22;25082;50.870;0.022;2023-03-04T11:13:34;17.70;56.80
37806;DHT22;25082;50.870;0.022;2023-03-04T11:15:59;17.70;56.90
37806;DHT22;25082;50.870;0.022;2023-03-04T11:18:47;17.80;56.90
37806;DHT22;25082;50.870;0.022;2023-03-04T11:21:26;17.80;56.90
37806;DHT22;25082;50.870;0.022;2023-03-04T11:24:00;17.80;56.90
37806;DHT22;25082;50.870;0.022;2023-03-04T11:26:42;17.80;56.90
37806;DHT22;25082;50.870;0.022;2023-03-04T11:32:39;17.80;56.80
37806;DHT22;25082;50.870;0.022;2023-03-04T11:40:15;17.80;56.90
37806;DHT22;25082;50.870;0.022;2023-03-04T11:45:22;17.90;56.90
37806;DHT22;25082;50.870;0.022;2023-03-04T11:48:39;17.90;56.90
37806;DHT22;25082;50.870;0.022;2023-03-04T11:51:12;17.90;56.90
37806;DHT22;25082;50.870;0.022;2023-03-04T11:56:44;17.90;56.80
37806;DHT22;25082;50.870;0.022;2023-03-04T12:02:15;18.00;56.90
37806;DHT22;25082;50.870;0.022;2023-03-04T12:16:28;18.00;56.80
37806;DHT22;25082;50.870;0.022;2023-03-04T12:19:21;18.00;56.80
37806;DHT22;25082;50.870;0.022;2023-03-04T12:29:47;18.00;56.80
37806;DHT22;25082;50.870;0.022;2023-03-04T12:32:34;18.00;56.80
37806;DHT22;25082;50.870;0.022;2023-03-04T12:35:34;18.00;56.80
37806;DHT22;25082;50.870;0.022;2023-03-04T12:38:26;18.00;56.80
37806;DHT22;25082;50.870;0.022;2023-03-04T12:52:05;18.00;56.80
37806;DHT22;25082;50.870;0.022;2023-03-04T12:54:44;18.00;56.80
37806;DHT22;25082;50.870;0.022;2023-03-04T12:57:19;18.00;57.30
37806;DHT22;25082;50.870;0.022;2023-03-04T13:02:45;18.00;56.80
37806;DHT22;25082;50.870;0.022;2023-03-04T13:05:30;18.00;56.80
37806;DHT22;25082;50.870;0.022;2023-03-04T13:10:41;18.10;56.80
37806;DHT22;25082;50.870;0.022;2023-03-04T13:18:37;18.00;56.70
37806;DHT22;25082;50.870;0.022;2023-03-04T13:21:15;18.10;56.70
37806;DHT22;25082;50.870;0.022;2023-03-04T13:23:42;18.10;56.70
37806;DHT22;25082;50.870;0.022;2023-03-04T13:26:29;18.10;56.70
37806;DHT22;25082;50.870;0.022;2023-03-04T13:29:19;18.10;56.80
37806;DHT22;25082;50.870;0.022;2023-03-04T13:34:47;18.10;56.70
37806;DHT22;25082;50.870;0.022;2023-03-04T13:37:35;18.10;56.70
37806;DHT22;25082;50.870;0.022;2023-03-04T13:42:46;18.10;56.70
37806;DHT22;25082;50.870;0.022;2023-03-04T13:45:34;18.10;56.70
37806;DHT22;25082;50.870;0.022;2023-03-04T13:48:03;18.10;56.60
37806;DHT22;25082;50.870;0.022;2023-03-04T13:50:47;18.10;56.70
37806;DHT22;25082;50.870;0.022;2023-03-04T13:53:42;18.10;56.70
37806;DHT22;25082;50.870;0.022;2023-03-04T13:58:38;18.10;56.70
37806;DHT22;25082;50.870;0.022;2023-03-04T14:01:04;18.10;56.70
37806;DHT22;25082;50.870;0.022;2023-03-04T14:03:33;18.10;56.70
37806;DHT22;25082;50.870;0.022;2023-03-04T14:06:21;18.20;56.70
37806;DHT22;25082;50.870;0.022;2023-03-04T14:08:48;18.20;56.70
37806;DHT22;25082;50.870;0.022;2023-03-04T14:13:51;18.20;56.70
37806;DHT22;25082;50.870;0.022;2023-03-04T14:16:20;18.20;56.70
37806;DHT22;25082;50.870;0.022;2023-03-04T14:18:58;18.20;56.70
37806;DHT22;25082;50.870;0.022;2023-03-04T14:21:25;18.20;56.60
37806;DHT22;25082;50.870;0.022;2023-03-04T14:24:05;18.20;56.70
37806;DHT22;25082;50.870;0.022;2023-03-04T14:26:31;18.20;56.60
37806;DHT22;25082;50.870;0.022;2023-03-04T14:28:58;18.20;56.60
37806;DHT22;25082;50.870;0.022;2023-03-04T14:31:26;18.20;56.60
37806;DHT22;25082;50.870;0.022;2023-03-04T14:33:56;18.20;56.60
37806;DHT22;25082;50.870;0.022;2023-03-04T14:36:27;18.20;56.60
37806;DHT22;25082;50.870;0.022;2023-03-04T14:38:59;18.20;56.60
37806;DHT22;25082;50.870;0.022;2023-03-04T14:41:32;18.20;56.60
37806;DHT22;25082;50.870;0.022;2023-03-04T14:46:38;18.20;56.60
37806;DHT22;25082;50.870;0.022;2023-03-04T14:49:06;18.20;56.60
37806;DHT22;25082;50.870;0.022;2023-03-04T14:51:36;18.20;56.60
37806;DHT22;25082;50.870;0.022;2023-03-04T14:54:03;18.20;56.60
37806;DHT22;25082;50.870;0.022;2023-03-04T14:56:32;18.20;56.60
37806;DHT22;25082;50.870;0.022;2023-03-04T14:58:58;18.20;56.60
37806;DHT22;25082;50.870;0.022;2023-03-04T15:01:33;18.20;56.60
37806;DHT22;25082;50.870;0.022;2023-03-04T15:04:03;18.20;56.60
37806;DHT22;25082;50.870;0.022;2023-03-04T15:07:15;18.20;56.60
37806;DHT22;25082;50.870;0.022;2023-03-04T15:09:41;18.20;56.60
37806;DHT22;25082;50.870;0.022;2023-03-04T15:12:09;18.20;56.50
37806;DHT22;25082;50.870;0.022;2023-03-04T15:14:49;18.20;56.50
37806;DHT22;25082;50.870;0.022;2023-03-04T15:17:34;18.20;56.50
37806;DHT22;25082;50.870;0.022;2023-03-04T15:22:32;18.20;56.50
37806;DHT22;25082;50.870;0.022;2023-03-04T15:24:58;18.20;56.50
37806;DHT22;25082;50.870;0.022;2023-03-04T15:27:27;18.30;56.60
37806;DHT22;25082;50.870;0.022;2023-03-04T15:29:57;18.20;56.50
37806;DHT22;25082;50.870;0.022;2023-03-04T15:32:29;18.30;56.60
37806;DHT22;25082;50.870;0.022;2023-03-04T15:34:55;18.30;56.60
37806;DHT22;25082;50.870;0.022;2023-03-04T15:37:23;18.30;56.60
37806;DHT22;25082;50.870;0.022;2023-03-04T15:39:50;18.30;56.60
37806;DHT22;25082;50.870;0.022;2023-03-04T15:42:16;18.30;56.60
37806;DHT22;25082;50.870;0.022;2023-03-04T15:44:43;18.30;56.60
37806;DHT22;25082;50.870;0.022;2023-03-04T15:47:10;18.30;56.60
37806;DHT22;25082;50.870;0.022;2023-03-04T15:49:42;18.20;56.50
37806;DHT22;25082;50.870;0.022;2023-03-04T15:52:26;18.30;56.60
37806;DHT22;25082;50.870;0.022;2023-03-04T15:54:51;18.30;56.60
37806;DHT22;25082;50.870;0.022;2023-03-04T15:57:24;18.30;57.10
37806;DHT22;25082;50.870;0.022;2023-03-04T15:59:50;18.30;56.60
37806;DHT22;25082;50.870;0.022;2023-03-04T16:02:23;18.30;56.60
37806;DHT22;25082;50.870;0.022;2023-03-04T16:04:49;18.30;56.60
37806;DHT22;25082;50.870;0.022;2023-03-04T16:07:19;18.30;56.60
37806;DHT22;25082;50.870;0.022;2023-03-04T16:09:51;18.30;56.50
37806;DHT22;25082;50.870;0.022;2023-03-04T16:12:17;18.30;56.50
37806;DHT22;25082;50.870;0.022;2023-03-04T16:14:43;18.30;56.60
37806;DHT22;25082;50.870;0.022;2023-03-04T16:17:11;18.30;56.60
37806;DHT22;25082;50.870;0.022;2023-03-04T16:19:38;18.30;56.50
37806;DHT22;25082;50.870;0.022;2023-03-04T16:22:04;18.30;56.50
37806;DHT22;25082;50.870;0.022;2023-03-04T16:24:32;18.30;56.60
37806;DHT22;25082;50.870;0.022;2023-03-04T16:26:58;18.30;56.50
37806;DHT22;25082;50.870;0.022;2023-03-04T16:29:24;18.30;56.50
37806;DHT22;25082;50.870;0.022;2023-03-04T16:31:49;18.30;56.50
37806;DHT22;25082;50.870;0.022;2023-03-04T16:34:18;18.30;56.50
37806;DHT22;25082;50.870;0.022;2023-03-04T16:36:43;18.30;56.50
37806;DHT22;25082;50.870;0.022;2023-03-04T16:39:19;18.30;56.50
37806;DHT22;25082;50.870;0.022;2023-03-04T16:41:45;18.30;56.50
37806;DHT22;25082;50.870;0.022;2023-03-04T16:44:10;18.30;56.50
37806;DHT22;25082;50.870;0.022;2023-03-04T16:46:38;18.30;56.50
37806;DHT22;25082;50.870;0.022;2023-03-04T16:49:04;18.30;56.70
37806;DHT22;25082;50.870;0.022;2023-03-04T16:51:34;18.30;56.50
37806;DHT22;25082;50.870;0.022;2023-03-04T16:54:01;18.30;56.50
37806;DHT22;25082;50.870;0.022;2023-03-04T16:56:27;18.30;56.50
37806;DHT22;25082;50.870;0.022;2023-03-04T16:58:53;18.30;56.50
37806;DHT22;25082;50.870;0.022;2023-03-04T17:01:24;18.30;56.50
37806;DHT22;25082;50.870;0.022;2023-03-04T17:03:51;18.30;56.50
37806;DHT22;25082;50.870;0.022;2023-03-04T17:06:18;18.30;56.50
37806;DHT22;25082;50.870;0.022;2023-03-04T17:08:45;18.30;56.50
37806;DHT22;25082;50.870;0.022;2023-03-04T17:11:22;18.30;56.50
37806;DHT22;25082;50.870;0.022;2023-03-04T17:13:48;18.30;56.50
37806;DHT22;25082;50.870;0.022;2023-03-04T17:16:15;18.30;56.50
37806;DHT22;25082;50.870;0.022;2023-03-04T17:18:41;18.30;56.50
37806;DHT22;25082;50.870;0.022;2023-03-04T17:21:12;18.30;56.50
37806;DHT22;25082;50.870;0.022;2023-03-04T17:23:38;18.30;56.50
37806;DHT22;25082;50.870;0.022;2023-03-04T17:26:04;18.30;56.50
37806;DHT22;25082;50.870;0.022;2023-03-04T17:28:30;18.30;56.50
37806;DHT22;25082;50.870;0.022;2023-03-04T17:30:56;18.30;56.50
37806;DHT22;25082;50.870;0.022;2023-03-04T17:33:22;18.30;56.50